Time;durP1;ratioP1;P1;durP2;ratioP2;P2;SDS_P1;SDS_P2;PMS_P1;PMS_P2;Temp;Humidity;BMP_temperature;BMP_pressure;BME280_temperature;BME280_humidity;BME280_pressure;Samples;Min_cycle;Max_cycle;Signal;HPM_P1;HPM_P2
2022/09/26 00:02:26;;;;;;;20.77;17.70;;;;;;;6.41;91.93;98208.88;2060047;87;21003;-84
2022/09/26 00:05:26;;;;;;;22.10;17.50;;;;;;;6.37;91.90;98208.83;2059659;86;20908;-84
2022/09/26 00:08:26;;;;;;;23.10;17.30;;;;;;;6.37;91.97;98209.25;2060062;87;21376;-84
2022/09/26 00:11:27;;;;;;;26.67;18.70;;;;;;;6.32;91.77;98205.70;2060017;86;20997;-82
2022/09/26 00:14:27;;;;;;;25.20;17.03;;;;;;;6.28;92.03;98199.59;2059961;86;20964;-83
2022/09/26 00:17:28;;;;;;;24.53;17.70;;;;;;;6.22;91.72;98197.30;2059737;86;21376;-84
2022/09/26 00:20:28;;;;;;;25.33;16.73;;;;;;;6.19;91.72;98197.25;2059824;87;21367;-83
2022/09/26 00:23:28;;;;;;;24.67;16.40;;;;;;;6.15;91.59;98189.84;2059447;86;21012;-84
2022/09/26 00:26:29;;;;;;;21.73;16.70;;;;;;;6.16;91.83;98185.53;2059982;86;20964;-83
2022/09/26 00:29:29;;;;;;;21.80;16.63;;;;;;;6.15;92.06;98180.77;2059786;86;20965;-84
2022/09/26 00:32:30;;;;;;;22.60;16.27;;;;;;;6.14;91.78;98184.20;2059852;87;21340;-83
2022/09/26 00:35:30;;;;;;;19.97;16.07;;;;;;;6.14;91.81;98180.32;2059746;86;20944;-83
2022/09/26 00:38:30;;;;;;;21.57;16.30;;;;;;;6.16;91.74;98173.88;2054934;87;20979;-82
2022/09/26 00:41:31;;;;;;;20.73;15.53;;;;;;;6.11;91.71;98169.90;2054831;86;21363;-83
2022/09/26 00:44:31;;;;;;;21.57;16.50;;;;;;;6.04;91.14;98171.47;2054800;86;20937;-83
2022/09/26 00:47:32;;;;;;;19.97;14.27;;;;;;;6.03;91.53;98155.89;2054725;86;21379;-84
2022/09/26 00:50:32;;;;;;;21.23;16.03;;;;;;;6.01;91.44;98151.11;2054865;86;20964;-83
2022/09/26 00:53:33;;;;;;;160.93;23.60;;;;;;;5.95;91.13;98149.70;2055634;86;20959;-79
2022/09/26 00:56:33;;;;;;;29.23;18.47;;;;;;;5.96;91.91;98148.86;2055173;86;21337;-83
2022/09/26 00:59:33;;;;;;;92.90;22.33;;;;;;;6.81;97.30;98148.19;2055672;86;20977;-83
2022/09/26 01:02:34;;;;;;;194.27;32.23;;;;;;;6.69;93.04;98150.16;2055151;86;20968;-83
2022/09/26 01:05:34;;;;;;;26.00;18.80;;;;;;;6.56;92.61;98143.91;2054971;86;21292;-83
2022/09/26 01:08:35;;;;;;;26.37;17.97;;;;;;;6.46;91.86;98144.60;2054806;86;20932;-82
2022/09/26 01:11:35;;;;;;;60.07;20.63;;;;;;;6.36;91.90;98156.53;2054903;86;20933;-84
2022/09/26 01:14:35;;;;;;;104.00;24.37;;;;;;;6.29;91.84;98150.80;2055407;86;20940;-83
2022/09/26 01:17:36;;;;;;;32.93;20.53;;;;;;;6.27;91.97;98144.71;2054405;86;21450;-83
2022/09/26 01:20:36;;;;;;;29.13;20.17;;;;;;;6.25;92.50;98141.22;2054710;86;20936;-83
2022/09/26 01:23:37;;;;;;;26.90;18.73;;;;;;;6.26;93.06;98136.48;2054789;86;20969;-83
2022/09/26 01:26:37;;;;;;;29.07;19.73;;;;;;;6.28;93.23;98136.09;2054896;86;20936;-83
2022/09/26 01:29:38;;;;;;;24.63;20.07;;;;;;;6.26;93.12;98138.20;2054794;86;20893;-82
2022/09/26 01:32:50;;;;;;;28.37;20.67;;;;;;;6.24;93.59;98128.23;2055091;86;20960;-82
2022/09/26 01:35:50;;;;;;;27.87;20.63;;;;;;;6.22;93.86;98119.14;2054768;87;20956;-82
2022/09/26 01:38:51;;;;;;;30.67;21.70;;;;;;;6.25;94.54;98129.55;2097962;85;20980;-83
2022/09/26 01:41:52;;;;;;;25.80;20.17;;;;;;;6.28;94.76;98124.42;2098822;85;20941;-82
2022/09/26 01:44:52;;;;;;;29.10;21.30;;;;;;;6.30;94.67;98125.75;2098760;85;20952;-82
2022/09/26 01:47:52;;;;;;;26.17;20.77;;;;;;;6.27;94.41;98123.97;2098442;85;21040;-82
2022/09/26 01:50:53;;;;;;;26.47;22.60;;;;;;;6.26;94.48;98115.75;2098588;85;20928;-83
2022/09/26 01:53:53;;;;;;;28.17;21.23;;;;;;;6.31;95.36;98119.30;2098661;85;20981;-82
2022/09/26 01:56:54;;;;;;;28.77;21.87;;;;;;;6.33;95.02;98115.01;2099084;85;20916;-82
2022/09/26 01:59:54;;;;;;;26.30;21.17;;;;;;;6.36;95.18;98116.36;2098737;85;20967;-83
2022/09/26 02:02:54;;;;;;;25.87;21.63;;;;;;;6.39;95.17;98119.42;2098652;85;20979;-83
2022/09/26 02:05:55;;;;;;;27.50;22.77;;;;;;;6.45;95.48;98116.93;2098471;85;20913;-82
2022/09/26 02:08:55;;;;;;;32.30;23.03;;;;;;;6.45;95.48;98116.93;2098565;85;20929;-82
2022/09/26 02:11:55;;;;;;;25.67;21.60;;;;;;;6.50;95.58;98120.47;2098623;85;20928;-82
2022/09/26 02:14:57;;;;;;;27.53;22.53;;;;;;;6.54;95.49;98114.91;2098495;85;21311;-82
2022/09/26 02:17:56;;;;;;;25.37;21.63;;;;;;;6.59;95.57;98118.45;2098423;85;21035;-81
2022/09/26 02:20:57;;;;;;;28.73;21.93;;;;;;;6.61;95.21;98118.05;2098620;85;20941;-83
2022/09/26 02:23:57;;;;;;;28.40;22.07;;;;;;;6.58;94.71;98117.58;2098357;85;20987;-82
2022/09/26 02:26:58;;;;;;;29.13;21.67;;;;;;;6.54;94.52;98122.27;2098398;85;21281;-81
2022/09/26 02:29:58;;;;;;;26.33;21.57;;;;;;;6.53;94.68;98109.27;2098557;85;20944;-83
2022/09/26 02:32:58;;;;;;;28.27;21.00;;;;;;;6.51;94.54;98107.95;2098712;85;20972;-83
2022/09/26 02:35:59;;;;;;;24.30;18.53;;;;;;;6.47;93.92;98105.29;2098326;85;20964;-84
2022/09/26 02:38:59;;;;;;;23.53;20.40;;;;;;;6.43;93.70;98106.95;2097487;83;20960;-84
2022/09/26 02:41:59;;;;;;;26.40;20.90;;;;;;;6.43;94.02;98109.55;2097995;85;20976;-85
2022/09/26 02:45:00;;;;;;;23.40;19.37;;;;;;;6.45;94.33;98100.50;2097999;85;20976;-84
2022/09/26 02:48:00;;;;;;;25.90;19.93;;;;;;;6.42;94.15;98097.86;2097812;85;21424;-83
2022/09/26 02:51:01;;;;;;;27.17;20.77;;;;;;;6.44;94.27;98094.87;2097646;85;20972;-83
2022/09/26 02:54:01;;;;;;;25.53;20.40;;;;;;;6.49;94.70;98094.52;2098012;85;20941;-84
2022/09/26 02:57:02;;;;;;;28.30;21.27;;;;;;;6.52;94.83;98092.84;2097990;85;21380;-83
2022/09/26 03:00:02;;;;;;;25.23;21.93;;;;;;;6.57;95.36;98089.90;2098056;85;20948;-83
2022/09/26 03:03:02;;;;;;;30.10;24.23;;;;;;;6.62;95.39;98085.66;2098595;85;21019;-83
2022/09/26 03:06:03;;;;;;;33.80;24.73;;;;;;;6.73;96.41;98078.46;2098299;85;20997;-83
2022/09/26 03:09:03;;;;;;;32.97;23.37;;;;;;;6.79;96.49;98075.53;2098549;85;20909;-83
2022/09/26 03:12:03;;;;;;;35.00;26.00;;;;;;;6.86;96.58;98082.97;2098562;85;20936;-83
2022/09/26 03:15:04;;;;;;;30.63;24.60;;;;;;;6.95;97.07;98079.24;2098413;85;20947;-83
2022/09/26 03:18:04;;;;;;;30.33;24.27;;;;;;;7.05;97.00;98071.16;2098244;85;21015;-83
2022/09/26 03:21:05;;;;;;;31.93;25.20;;;;;;;7.14;96.93;98070.86;2097953;85;20976;-83
2022/09/26 03:24:05;;;;;;;29.70;25.60;;;;;;;7.20;96.91;98069.64;2098792;85;20953;-84
2022/09/26 03:27:05;;;;;;;29.23;24.33;;;;;;;7.27;96.90;98066.69;2098201;85;21427;-82
2022/09/26 03:30:06;;;;;;;33.47;24.90;;;;;;;7.32;96.83;98063.72;2098554;85;20951;-83
2022/09/26 03:33:06;;;;;;;37.50;25.30;;;;;;;7.38;96.73;98061.20;2098826;85;20957;-80
2022/09/26 03:36:08;;;;;;;36.33;23.93;;;;;;;7.50;96.53;98054.84;2098697;85;20975;-83
2022/09/26 03:39:07;;;;;;;32.97;24.13;;;;;;;7.50;96.53;98054.84;2098280;85;20983;-83
2022/09/26 03:42:08;;;;;;;34.67;24.83;;;;;;;7.53;96.55;98047.52;2098528;85;20976;-83
2022/09/26 03:45:09;;;;;;;34.17;24.43;;;;;;;7.56;96.55;98038.03;2098306;85;20972;-83
2022/09/26 03:48:08;;;;;;;29.23;24.73;;;;;;;7.63;96.97;98040.27;2097737;85;21202;-83
2022/09/26 03:51:09;;;;;;;47.80;26.90;;;;;;;7.71;97.04;98032.56;2097408;85;21376;-82
2022/09/26 03:54:10;;;;;;;31.50;25.43;;;;;;;7.92;100.00;98021.11;2096967;85;20936;-83
2022/09/26 03:57:11;;;;;;;32.00;25.00;;;;;;;8.05;96.93;98025.98;2097579;85;20952;-82
2022/09/26 04:00:10;;;;;;;29.63;24.77;;;;;;;7.98;96.26;98023.77;2097561;85;21297;-82
2022/09/26 04:03:11;;;;;;;177.03;31.07;;;;;;;7.96;96.18;98022.45;2096692;85;20952;-82
2022/09/26 04:06:11;;;;;;;43.13;26.23;;;;;;;7.96;96.06;98026.77;2096801;85;20972;-82
2022/09/26 04:09:12;;;;;;;33.07;25.00;;;;;;;7.94;95.95;98017.66;2097344;85;20956;-83
2022/09/26 04:12:12;;;;;;;36.17;24.90;;;;;;;7.91;95.82;98020.66;2096742;85;21329;-81
2022/09/26 04:15:12;;;;;;;38.27;27.03;;;;;;;7.88;95.94;98023.23;2097366;85;20917;-82
2022/09/26 04:18:13;;;;;;;35.60;24.90;;;;;;;7.85;96.10;98018.87;2097662;85;21011;-83
2022/09/26 04:21:13;;;;;;;35.30;26.63;;;;;;;7.84;96.23;98014.97;2097306;85;21341;-85
2022/09/26 04:24:14;;;;;;;36.20;26.03;;;;;;;7.82;96.42;98019.28;2097235;85;20948;-83
2022/09/26 04:27:14;;;;;;;28.87;25.03;;;;;;;7.80;96.49;98007.97;2097423;85;21008;-83
2022/09/26 04:30:14;;;;;;;34.10;25.63;;;;;;;7.78;96.40;98000.59;2097617;85;21335;-82
2022/09/26 04:33:15;;;;;;;34.43;24.93;;;;;;;7.77;96.35;97998.84;2097144;85;20944;-83
2022/09/26 04:36:15;;;;;;;57.03;26.43;;;;;;;7.78;96.45;97994.97;2097741;85;20944;-80
2022/09/26 04:39:16;;;;;;;125.27;31.23;;;;;;;7.77;96.44;97996.25;2076629;85;21023;-82
2022/09/26 04:42:16;;;;;;;33.13;25.87;;;;;;;7.80;96.36;97997.58;2073671;86;20967;-83
2022/09/26 04:45:17;;;;;;;28.63;24.60;;;;;;;7.81;96.21;97993.73;2073688;86;21047;-84
2022/09/26 04:48:17;;;;;;;82.07;26.27;;;;;;;7.82;96.26;97999.37;2073460;86;21007;-78
2022/09/26 04:51:18;;;;;;;30.40;24.70;;;;;;;7.89;96.79;97987.30;2073689;86;20934;-84
2022/09/26 04:54:18;;;;;;;35.27;24.23;;;;;;;7.96;96.17;97991.27;2073303;86;20931;-85
2022/09/26 04:57:18;;;;;;;36.67;25.00;;;;;;;8.01;95.81;97987.83;2073395;85;21557;-84
2022/09/26 05:00:19;;;;;;;33.80;24.17;;;;;;;8.05;95.58;97993.06;2073389;86;21645;-83
2022/09/26 05:03:19;;;;;;;32.23;22.80;;;;;;;8.09;95.27;97994.83;2072801;86;20936;-84
2022/09/26 05:06:19;;;;;;;28.67;22.53;;;;;;;8.12;94.93;98000.48;2073303;86;20991;-84
2022/09/26 05:09:20;;;;;;;29.57;23.63;;;;;;;8.11;94.75;98003.52;2073971;85;20991;-84
2022/09/26 05:12:20;;;;;;;28.83;24.50;;;;;;;8.17;95.26;98002.69;2073242;86;21367;-83
2022/09/26 05:15:21;;;;;;;49.37;25.10;;;;;;;8.26;95.55;98004.93;2073673;86;20947;-84
2022/09/26 05:18:22;;;;;;;33.10;23.83;;;;;;;8.35;95.51;98007.19;2074044;86;21075;-83
2022/09/26 05:21:21;;;;;;;33.97;24.80;;;;;;;8.43;95.29;98001.61;2074462;86;20979;-83
2022/09/26 05:27:41;;;;;;;46.37;25.83;;;;;;;8.89;100.00;98003.66;2073818;86;20955;-84
2022/09/26 05:30:42;;;;;;;33.37;22.93;;;;;;;10.06;99.14;97994.02;2073763;86;20964;-84
2022/09/26 05:33:43;;;;;;;31.10;23.37;;;;;;;9.78;94.63;97995.73;2073564;86;20920;-82
2022/09/26 05:36:42;;;;;;;56.23;28.07;;;;;;;9.65;94.20;97997.01;2073692;86;20956;-80
2022/09/26 05:43:01;;;;;;;44.67;23.70;;;;;;;9.51;93.59;97997.81;2052550;87;20940;-81
2022/09/26 05:46:02;;;;;;;41.23;24.83;;;;;;;9.48;93.68;97989.99;2053208;87;20993;-83
2022/09/26 05:49:02;;;;;;;41.47;24.73;;;;;;;9.51;93.67;97990.00;2053234;87;21039;-80
2022/09/26 05:52:02;;;;;;;39.40;25.87;;;;;;;9.51;93.88;97991.30;2052378;87;20936;-84
2022/09/26 05:55:03;;;;;;;38.67;25.97;;;;;;;9.56;94.20;97990.04;2052052;87;20972;-82
2022/09/26 05:58:04;;;;;;;48.70;27.07;;;;;;;9.60;94.24;97990.92;2052733;87;20936;-82
2022/09/26 06:01:03;;;;;;;31.57;27.10;;;;;;;9.68;94.35;97990.50;2052641;87;21015;-82
2022/09/26 06:04:04;;;;;;;32.97;27.73;;;;;;;9.76;94.33;97986.16;2052946;87;20952;-83
2022/09/26 06:07:04;;;;;;;31.27;26.80;;;;;;;9.82;94.26;97982.27;2051813;87;20935;-82
2022/09/26 06:10:05;;;;;;;30.53;26.67;;;;;;;9.89;94.26;97986.62;2051674;87;20981;-82
2022/09/26 06:13:06;;;;;;;33.17;27.17;;;;;;;9.98;94.23;97981.84;2051366;87;20933;-82
2022/09/26 06:16:06;;;;;;;34.57;27.57;;;;;;;10.03;94.13;97980.97;2052083;87;21337;-81
2022/09/26 06:19:06;;;;;;;44.23;28.47;;;;;;;10.08;94.21;97989.66;2052856;87;21031;-83
2022/09/26 06:22:06;;;;;;;32.60;27.63;;;;;;;10.08;94.23;97980.54;2052675;87;20975;-82
2022/09/26 06:25:09;;;;;;;33.43;28.27;;;;;;;10.13;94.22;97985.32;2053104;87;21335;-82
2022/09/26 06:28:11;;;;;;;34.80;28.90;;;;;;;10.14;94.37;97980.97;2052625;87;21091;-83
2022/09/26 06:31:11;;;;;;;36.50;28.53;;;;;;;10.19;94.78;97981.41;2053056;87;20984;-84
2022/09/26 06:34:14;;;;;;;32.87;28.17;;;;;;;10.21;94.69;97984.92;2053345;87;21000;-84
2022/09/26 06:37:15;;;;;;;34.20;28.17;;;;;;;10.24;94.77;97976.66;2052828;87;20968;-83
2022/09/26 06:40:15;;;;;;;36.47;30.87;;;;;;;10.28;95.04;97975.34;2073213;85;21007;-82
2022/09/26 06:43:16;;;;;;;32.83;28.87;;;;;;;10.31;94.78;97979.25;2074680;86;20971;-81
2022/09/26 06:46:16;;;;;;;37.47;30.60;;;;;;;10.41;95.36;97960.58;2074456;86;20951;-84
2022/09/26 06:49:16;;;;;;;36.00;29.87;;;;;;;10.49;95.30;97967.52;2073371;86;21010;-82
2022/09/26 06:52:17;;;;;;;38.60;30.50;;;;;;;10.57;95.24;97972.73;2074347;86;20919;-83
2022/09/26 06:55:17;;;;;;;34.63;30.73;;;;;;;10.64;95.25;97972.28;2074183;86;20951;-83
2022/09/26 06:58:18;;;;;;;42.70;31.07;;;;;;;10.71;95.46;97968.34;2073513;86;21700;-84
2022/09/26 07:01:18;;;;;;;35.85;30.35;;;;;;;10.83;95.56;97974.83;2073043;86;20979;-84
2022/09/26 07:04:19;;;;;;;33.85;28.12;;;;;;;10.94;95.07;97969.58;2073572;86;21286;-84
2022/09/26 07:07:19;;;;;;;32.63;28.95;;;;;;;11.06;95.09;97972.58;2073296;86;21360;-84
2022/09/26 07:10:19;;;;;;;35.47;29.53;;;;;;;11.20;95.24;97973.39;2072880;86;21654;-81
2022/09/26 07:13:20;;;;;;;34.73;28.85;;;;;;;11.33;94.84;97985.98;2073126;86;20983;-82
2022/09/26 07:16:20;;;;;;;41.10;30.02;;;;;;;11.45;94.47;97979.39;2072926;86;20964;-83
2022/09/26 07:19:21;;;;;;;37.75;28.90;;;;;;;11.58;94.30;97986.72;2073182;86;21458;-82
2022/09/26 07:22:21;;;;;;;32.25;28.73;;;;;;;11.70;93.91;97994.05;2072986;86;20967;-81
2022/09/26 07:25:21;;;;;;;32.20;28.20;;;;;;;11.77;93.96;97992.27;2073867;86;20958;-82
2022/09/26 07:28:23;;;;;;;35.85;28.75;;;;;;;11.82;93.81;97985.30;2072964;86;20984;-83
2022/09/26 07:31:22;;;;;;;33.48;28.35;;;;;;;11.85;93.33;97986.58;2073100;86;20955;-82
2022/09/26 07:34:23;;;;;;;35.85;29.35;;;;;;;11.88;93.56;97985.69;2072911;86;20947;-83
2022/09/26 07:37:23;;;;;;;33.40;29.80;;;;;;;11.92;93.28;97986.09;2073185;86;21003;-81
2022/09/26 07:40:23;;;;;;;33.83;28.50;;;;;;;11.97;93.16;97985.19;2095388;85;20989;-83
2022/09/26 07:43:27;;;;;;;35.38;28.52;;;;;;;12.05;93.26;97985.99;2097122;85;20917;-82
2022/09/26 07:53:05;;;;;;;39.25;29.37;;;;;;;12.48;92.95;97979.55;2096466;85;20944;-82
2022/09/26 07:56:05;;;;;;;36.80;29.35;;;;;;;12.78;93.34;97979.69;2096801;85;20956;-82
2022/09/26 07:59:06;;;;;;;31.87;28.47;;;;;;;13.08;92.57;97975.00;2096665;85;21285;-82
2022/09/26 08:02:09;;;;;;;34.53;29.70;;;;;;;13.37;92.34;97979.05;2095747;85;21055;-80
2022/09/26 08:05:06;;;;;;;37.58;28.77;;;;;;;13.59;91.74;97980.94;2096070;85;20920;-81
2022/09/26 08:08:07;;;;;;;34.60;29.27;;;;;;;13.69;90.97;97974.67;2096713;85;20921;-83
2022/09/26 08:11:07;;;;;;;36.20;29.50;;;;;;;13.80;90.13;97973.20;2096521;85;21589;-83
2022/09/26 08:14:08;;;;;;;36.13;30.02;;;;;;;13.94;90.18;97973.45;2095671;85;20932;-82
2022/09/26 08:17:08;;;;;;;33.35;28.60;;;;;;;14.10;89.46;97968.82;2095426;85;20952;-82
2022/09/26 08:20:09;;;;;;;31.97;28.12;;;;;;;14.23;89.90;97972.98;2094503;85;21048;-81
2022/09/26 08:23:09;;;;;;;34.95;29.10;;;;;;;14.41;89.45;97963.92;2094622;85;20952;-82
2022/09/26 08:26:09;;;;;;;33.63;30.05;;;;;;;14.55;88.79;97958.46;2094675;85;20979;-82
2022/09/26 08:29:11;;;;;;;32.48;28.42;;;;;;;14.66;87.87;97953.88;2095016;85;21435;-82
2022/09/26 08:32:10;;;;;;;49.50;29.75;;;;;;;14.78;88.01;97954.99;2094911;85;20928;-82
2022/09/26 08:35:13;;;;;;;49.83;28.47;;;;;;;14.91;88.08;97957.80;2095857;85;20989;-81
2022/09/26 08:38:13;;;;;;;34.53;28.52;;;;;;;15.07;87.27;97958.36;2093664;85;20932;-81
2022/09/26 08:41:11;;;;;;;31.05;27.65;;;;;;;15.19;86.55;97953.30;2072420;85;20939;-83
2022/09/26 08:44:13;;;;;;;34.90;27.00;;;;;;;15.27;85.72;97950.93;2073331;86;20950;-82
2022/09/26 08:47:15;;;;;;;36.80;27.48;;;;;;;15.33;85.75;97955.64;2073236;86;20912;-83
2022/09/26 08:50:13;;;;;;;30.25;25.97;;;;;;;15.41;85.64;97956.34;2073530;86;20975;-81
2022/09/26 08:53:13;;;;;;;28.38;25.48;;;;;;;15.44;84.78;97953.20;2072959;86;20964;-81
2022/09/26 08:56:13;;;;;;;31.60;25.23;;;;;;;15.51;84.90;97944.27;2073546;86;20983;-79
2022/09/26 08:59:14;;;;;;;33.83;26.00;;;;;;;15.69;84.68;97953.58;2072839;86;20964;-82
2022/09/26 09:02:14;;;;;;;30.30;26.95;;;;;;;15.86;84.42;97952.74;2073582;86;20972;-81
2022/09/26 09:05:15;;;;;;;28.67;25.72;;;;;;;16.06;83.97;97949.64;2073234;86;20916;-82
2022/09/26 09:08:20;;;;;;;33.20;24.77;;;;;;;16.21;83.49;97939.17;2073920;86;20963;-80
2022/09/26 09:11:15;;;;;;;29.35;26.15;;;;;;;16.30;82.56;97944.21;2074159;86;20988;-80
2022/09/26 09:14:16;;;;;;;64.25;27.00;;;;;;;16.33;82.19;97949.41;2073991;86;21391;-80
2022/09/26 09:17:16;;;;;;;33.45;25.27;;;;;;;16.33;81.60;97946.77;2073968;86;21589;-81
2022/09/26 09:20:19;;;;;;;27.35;24.37;;;;;;;16.36;81.30;97942.74;2074080;86;20994;-80
2022/09/26 09:23:17;;;;;;;26.48;23.73;;;;;;;16.44;80.88;97942.55;2073504;86;21027;-80
2022/09/26 09:26:17;;;;;;;33.20;24.25;;;;;;;16.64;81.17;97935.47;2074287;86;21367;-81
2022/09/26 09:29:18;;;;;;;33.73;24.65;;;;;;;16.84;80.45;97934.05;2073298;86;21336;-80
2022/09/26 09:32:18;;;;;;;30.57;22.93;;;;;;;17.04;80.11;97934.81;2073681;86;20936;-80
2022/09/26 09:35:19;;;;;;;25.80;22.55;;;;;;;17.28;79.04;97932.37;2074099;86;21431;-80
2022/09/26 09:38:19;;;;;;;27.27;24.15;;;;;;;17.44;77.71;97929.27;2073885;84;20935;-80
2022/09/26 09:41:20;;;;;;;33.90;20.52;;;;;;;17.68;76.75;97925.05;2096733;85;21008;-81
2022/09/26 09:47:54;;;;;;;24.90;19.20;;;;;;;18.07;75.16;97916.76;2306535;77;22247;-80
2022/09/26 09:50:55;;;;;;;27.30;20.72;;;;;;;18.07;74.76;97916.76;2268089;78;20987;-81
2022/09/26 09:53:55;;;;;;;28.45;19.92;;;;;;;18.12;74.32;97917.02;2267728;78;20950;-80
2022/09/26 09:56:55;;;;;;;24.10;17.25;;;;;;;18.23;73.67;97917.14;2268465;78;20971;-81
2022/09/26 09:59:56;;;;;;;23.18;14.43;;;;;;;18.35;72.34;97912.31;2268304;78;21640;-80
2022/09/26 10:03:00;;;;;;;19.02;15.13;;;;;;;18.43;70.98;97910.27;2268186;78;21555;-81
2022/09/26 10:06:00;;;;;;;14.00;11.83;;;;;;;18.52;71.79;97913.51;2268114;78;20951;-82
2022/09/26 10:09:03;;;;;;;14.87;11.28;;;;;;;18.63;70.95;97915.35;2268519;78;21559;-83
2022/09/26 10:12:01;;;;;;;10.43;9.53;;;;;;;18.68;69.50;97914.73;2269303;78;21030;-82
2022/09/26 10:15:01;;;;;;;12.15;10.95;;;;;;;18.77;68.26;97907.80;2269437;78;20955;-81
2022/09/26 10:18:02;;;;;;;21.42;11.97;;;;;;;18.91;68.79;97908.16;2268123;78;21598;-79
2022/09/26 10:21:05;;;;;;;17.37;10.90;;;;;;;18.97;68.41;97907.94;2267555;78;20947;-80
2022/09/26 10:24:05;;;;;;;12.35;11.03;;;;;;;19.03;70.34;97906.84;2266331;78;20943;-80
2022/09/26 10:27:05;;;;;;;19.25;11.63;;;;;;;19.81;68.12;97899.94;2267019;78;20975;-83
2022/09/26 10:30:06;;;;;;;12.75;11.35;;;;;;;19.60;66.93;97897.22;2266385;78;20991;-79
2022/09/26 10:33:06;;;;;;;34.18;10.50;;;;;;;19.35;66.04;97898.59;2266254;78;21398;-80
2022/09/26 10:36:07;;;;;;;15.90;9.45;;;;;;;19.25;65.62;97895.90;2266606;78;20951;-81
2022/09/26 10:42:26;;;;;;;25.88;11.60;;;;;;;19.41;64.55;97893.53;2267756;78;20916;-79
2022/09/26 10:45:28;;;;;;;16.10;10.85;;;;;;;19.30;64.85;97886.47;2266978;78;21579;-82
2022/09/26 10:48:27;;;;;;;12.23;10.90;;;;;;;19.24;65.31;97885.38;2270917;78;20967;-81
2022/09/26 10:51:28;;;;;;;14.28;12.37;;;;;;;19.13;65.00;97880.95;2270993;78;20931;-83
2022/09/26 10:54:28;;;;;;;25.15;12.65;;;;;;;19.00;65.78;97879.19;2270518;78;21013;-80
2022/09/26 10:57:28;;;;;;;17.90;13.48;;;;;;;19.21;65.46;97874.91;2270206;78;20935;-80
2022/09/26 11:00:30;;;;;;;26.25;12.90;;;;;;;19.25;64.18;97876.52;2271784;78;20963;-81
2022/09/26 11:03:29;;;;;;;37.15;12.70;;;;;;;19.23;64.75;97868.64;2272216;78;20931;-80
2022/09/26 11:06:29;;;;;;;12.10;10.80;;;;;;;19.22;64.12;97864.73;2270265;78;20998;-80
2022/09/26 11:09:30;;;;;;;28.00;12.85;;;;;;;19.08;64.29;97860.83;2271113;78;20963;-80
2022/09/26 11:12:32;;;;;;;10.78;9.80;;;;;;;19.27;64.97;97857.48;2270672;78;20912;-80
2022/09/26 11:15:31;;;;;;;13.25;9.63;;;;;;;19.28;63.74;97856.56;2270293;78;20975;-82
2022/09/26 11:18:31;;;;;;;23.32;10.88;;;;;;;19.51;63.06;97846.39;2270648;78;20896;-81
2022/09/26 11:21:33;;;;;;;16.60;9.78;;;;;;;19.49;62.80;97862.33;2270928;78;20947;-81
2022/09/26 11:24:36;;;;;;;45.40;11.95;;;;;;;19.47;62.45;97846.97;2270941;78;20911;-80
2022/09/26 11:27:32;;;;;;;15.88;10.60;;;;;;;19.56;62.75;97852.40;2270246;78;20943;-80
2022/09/26 11:30:33;;;;;;;12.60;11.43;;;;;;;19.72;61.86;97849.07;2271110;78;20947;-82
2022/09/26 11:33:33;;;;;;;12.28;10.88;;;;;;;19.69;61.56;97852.30;2270439;78;21363;-82
2022/09/26 11:36:34;;;;;;;34.23;11.97;;;;;;;19.75;62.57;97851.20;2270861;78;20920;-83
2022/09/26 11:39:34;;;;;;;14.03;11.65;;;;;;;19.86;61.86;97854.27;2270650;78;20895;-82
2022/09/26 11:42:34;;;;;;;20.27;13.25;;;;;;;19.75;60.72;97851.20;2271084;78;20923;-81
2022/09/26 11:45:35;;;;;;;17.50;11.68;;;;;;;19.51;61.40;97849.91;2269602;78;21027;-81
2022/09/26 11:48:36;;;;;;;15.03;11.90;;;;;;;19.32;61.93;97850.22;2270072;78;20982;-82
2022/09/26 11:51:39;;;;;;;14.47;11.73;;;;;;;19.40;61.78;97846.81;2269558;78;21396;-81
2022/09/26 11:54:39;;;;;;;13.32;11.95;;;;;;;19.52;61.04;97838.85;2268847;78;21056;-81
2022/09/26 11:57:41;;;;;;;14.30;12.82;;;;;;;19.60;61.67;97840.30;2269493;78;20924;-82
2022/09/26 12:00:40;;;;;;;12.33;11.03;;;;;;;19.69;61.24;97837.28;2269828;78;20916;-81
2022/09/26 12:03:42;;;;;;;12.03;10.98;;;;;;;20.02;60.75;97834.20;2270015;78;20973;-82
2022/09/26 12:06:41;;;;;;;12.85;11.45;;;;;;;20.01;60.02;97830.69;2268998;78;20951;-78
2022/09/26 12:09:43;;;;;;;13.10;10.50;;;;;;;20.10;59.18;97833.41;2268383;78;20935;-80
2022/09/26 12:12:42;;;;;;;17.92;12.35;;;;;;;20.00;59.07;97834.72;2267618;78;20943;-82
2022/09/26 12:15:42;;;;;;;13.60;12.20;;;;;;;20.04;60.16;97828.37;2267909;78;20987;-79
2022/09/26 12:18:42;;;;;;;56.37;13.90;;;;;;;20.10;59.56;97834.73;2267690;78;21652;-83
2022/09/26 12:22:27;;;;;;;11.73;10.63;;;;;;;20.03;58.86;97837.24;2267843;78;20994;-83
2022/09/26 12:24:44;;;;;;;12.28;10.82;;;;;;;19.93;59.08;97829.25;2268018;78;20915;-79
2022/09/26 12:27:43;;;;;;;23.52;11.30;;;;;;;19.81;60.25;97830.63;2268646;78;21609;-81
2022/09/26 12:30:44;;;;;;;13.95;11.83;;;;;;;19.86;60.75;97825.14;2268034;78;21655;-80
2022/09/26 12:33:44;;;;;;;18.17;11.57;;;;;;;19.86;60.52;97826.46;2268183;78;21665;-81
2022/09/26 12:36:46;;;;;;;34.03;12.78;;;;;;;19.84;60.61;97823.02;2268671;78;20966;-82
2022/09/26 12:39:46;;;;;;;14.50;10.38;;;;;;;19.96;60.22;97818.56;2268552;78;20895;-80
2022/09/26 12:42:46;;;;;;;10.70;9.65;;;;;;;19.94;59.37;97809.78;2268846;78;20963;-82
2022/09/26 12:45:46;;;;;;;32.63;10.78;;;;;;;20.00;59.23;97810.42;2269158;78;21022;-81
2022/09/26 12:48:47;;;;;;;13.80;9.98;;;;;;;20.06;58.65;97805.33;2264722;78;20924;-79
2022/09/26 12:51:47;;;;;;;15.90;12.00;;;;;;;20.12;58.58;97801.09;2265105;78;20971;-81
2022/09/26 12:54:48;;;;;;;11.63;10.43;;;;;;;20.10;59.44;97804.27;2264833;78;21311;-81
2022/09/26 12:57:49;;;;;;;11.28;10.08;;;;;;;20.00;58.99;97805.59;2265242;78;20960;-81
2022/09/26 13:00:49;;;;;;;12.50;9.90;;;;;;;19.86;58.81;97802.16;2265853;78;20888;-79
2022/09/26 13:03:48;;;;;;;30.32;11.93;;;;;;;19.88;59.08;97800.78;2265230;78;21375;-79
2022/09/26 13:06:54;;;;;;;17.90;11.78;;;;;;;20.00;58.77;97805.13;2264948;78;20979;-79
2022/09/26 13:09:50;;;;;;;18.57;11.60;;;;;;;19.90;58.87;97797.14;2264164;78;21371;-80
2022/09/26 13:12:50;;;;;;;14.87;10.95;;;;;;;19.68;59.21;97805.58;2264289;78;20911;-80
2022/09/26 13:15:50;;;;;;;13.45;11.18;;;;;;;19.53;59.75;97800.91;2264593;78;20936;-80
2022/09/26 13:18:51;;;;;;;15.43;11.35;;;;;;;19.35;60.33;97795.40;2265783;78;20920;-80
2022/09/26 13:21:53;;;;;;;11.88;10.10;;;;;;;19.22;60.65;97795.95;2265168;78;20943;-80
2022/09/26 13:24:51;;;;;;;261.35;34.15;;;;;;;19.20;60.54;97795.14;2265629;78;20943;-83
2022/09/26 13:27:53;;;;;;;15.72;10.10;;;;;;;19.30;61.22;97799.16;2265706;78;20887;-80
2022/09/26 13:30:52;;;;;;;15.13;9.63;;;;;;;19.35;60.94;97790.11;2265641;78;21007;-79
2022/09/26 13:33:52;;;;;;;27.32;10.30;;;;;;;19.39;61.01;97800.11;2266128;78;21678;-82
2022/09/26 13:36:54;;;;;;;17.05;9.33;;;;;;;19.31;60.90;97794.27;2265611;78;20947;-80
2022/09/26 13:39:53;;;;;;;11.05;9.30;;;;;;;19.17;60.87;97793.48;2265734;78;20968;-81
2022/09/26 13:42:55;;;;;;;36.77;11.12;;;;;;;18.99;61.20;97795.48;2265958;78;21368;-80
2022/09/26 13:45:57;;;;;;;27.60;10.60;;;;;;;18.75;61.32;97790.67;2265996;78;20943;-81
2022/09/26 13:48:59;;;;;;;10.63;9.45;;;;;;;18.52;62.34;97798.56;2270378;78;20923;-81
2022/09/26 13:51:57;;;;;;;10.10;8.55;;;;;;;18.42;62.68;97792.28;2270817;78;20994;-80
2022/09/26 13:54:56;;;;;;;12.15;9.65;;;;;;;18.41;62.69;97786.60;2270934;78;20963;-79
2022/09/26 13:58:02;;;;;;;14.13;9.20;;;;;;;18.42;63.21;97782.18;2270570;78;20935;-82
2022/09/26 14:00:59;;;;;;;9.48;8.58;;;;;;;18.55;63.32;97777.30;2272514;78;20963;-82
2022/09/26 14:04:00;;;;;;;11.33;8.48;;;;;;;18.78;63.13;97777.34;2271695;78;20920;-80
2022/09/26 14:07:00;;;;;;;17.32;10.03;;;;;;;19.12;62.51;97776.07;2270948;78;20947;-80
2022/09/26 14:10:05;;;;;;;14.98;9.85;;;;;;;19.24;61.17;97774.27;2270969;78;20947;-81
2022/09/26 14:13:07;;;;;;;10.23;9.33;;;;;;;19.05;61.29;97772.31;2271097;78;20912;-78
2022/09/26 14:16:04;;;;;;;18.37;10.10;;;;;;;18.91;62.10;97773.77;2271378;78;20923;-82